Time;durP1;ratioP1;P1;durP2;ratioP2;P2;SDS_P1;SDS_P2;PMS_P1;PMS_P2;Temp;Humidity;BMP_temperature;BMP_pressure;BME280_temperature;BME280_humidity;BME280_pressure;Samples;Min_cycle;Max_cycle;Signal;HPM_P1;HPM_P2
2022/03/23 00:02:19;;;;;;;21.30;15.00;;;5.70;90.30;;;;;;5014572;28;20536;-90
2022/03/23 00:04:45;;;;;;;20.37;14.87;;;5.90;90.40;;;;;;4994505;28;20320;-89
2022/03/23 00:07:11;;;;;;;19.07;15.73;;;5.80;90.90;;;;;;4993414;28;20182;-90
2022/03/23 00:09:36;;;;;;;20.00;15.40;;;5.80;90.70;;;;;;5006011;28;20212;-89
2022/03/23 00:12:02;;;;;;;17.97;15.20;;;5.80;90.80;;;;;;5005546;28;20197;-89
2022/03/23 00:14:27;;;;;;;19.83;15.37;;;5.80;91.30;;;;;;5003034;28;20193;-91
2022/03/23 00:16:53;;;;;;;20.67;15.17;;;5.80;91.60;;;;;;5012524;28;20540;-91
2022/03/23 00:19:21;;;;;;;19.07;14.33;;;5.80;91.40;;;;;;4996385;28;20192;-91
2022/03/23 00:21:49;;;;;;;21.03;15.40;;;5.70;91.40;;;;;;4990153;28;20281;-90
2022/03/23 00:24:14;;;;;;;19.03;14.67;;;5.70;91.30;;;;;;5009557;28;20473;-91
2022/03/23 00:26:40;;;;;;;19.63;13.90;;;5.70;91.70;;;;;;4993717;28;20542;-91
2022/03/23 00:29:06;;;;;;;18.07;14.90;;;5.70;91.60;;;;;;5006761;28;20182;-91
2022/03/23 00:31:32;;;;;;;17.23;14.90;;;5.50;92.10;;;;;;4994504;28;20225;-90
2022/03/23 00:34:10;;;;;;;24.50;15.60;;;5.50;92.70;;;;;;5005686;28;20929;-90
2022/03/23 00:36:36;;;;;;;19.27;15.40;;;5.40;92.60;;;;;;4995105;28;20455;-90
2022/03/23 00:39:02;;;;;;;18.20;13.77;;;5.40;92.80;;;;;;4992053;28;20188;-89
2022/03/23 00:41:27;;;;;;;17.50;14.77;;;5.30;93.10;;;;;;5017449;28;20444;-89
2022/03/23 00:43:53;;;;;;;17.33;13.87;;;5.30;93.30;;;;;;4997041;28;20456;-90
2022/03/23 00:46:19;;;;;;;18.87;15.63;;;5.30;93.30;;;;;;4994241;28;20185;-89
2022/03/23 00:48:45;;;;;;;23.50;16.80;;;5.30;93.20;;;;;;5003544;28;20184;-90
2022/03/23 00:51:10;;;;;;;16.77;14.53;;;5.40;93.80;;;;;;5018026;28;20500;-89
2022/03/23 00:53:36;;;;;;;17.70;15.27;;;5.40;93.80;;;;;;5012029;28;20185;-89
2022/03/23 00:56:02;;;;;;;20.37;15.43;;;5.40;93.90;;;;;;5000316;28;20571;-89
2022/03/23 00:58:27;;;;;;;18.27;14.33;;;5.40;93.40;;;;;;5002846;28;20219;-90
2022/03/23 01:00:53;;;;;;;17.83;14.87;;;5.30;93.30;;;;;;5000791;28;20279;-90
2022/03/23 01:03:19;;;;;;;17.30;14.27;;;5.10;93.20;;;;;;4998070;28;20217;-90
2022/03/23 01:05:45;;;;;;;19.17;14.23;;;5.10;93.90;;;;;;5009740;28;21021;-89
2022/03/23 01:08:11;;;;;;;20.77;15.77;;;5.00;93.40;;;;;;4995847;28;20476;-89
2022/03/23 01:10:36;;;;;;;18.43;15.03;;;4.80;93.00;;;;;;5001797;28;20590;-89
2022/03/23 01:13:05;;;;;;;19.80;14.03;;;4.60;93.40;;;;;;4996718;28;20185;-89
2022/03/23 01:15:33;;;;;;;21.20;14.77;;;4.60;94.10;;;;;;4992295;28;20184;-90
2022/03/23 01:17:59;;;;;;;18.23;14.90;;;4.60;94.50;;;;;;5008389;28;21050;-89
2022/03/23 01:20:30;;;;;;;17.13;14.30;;;4.60;94.70;;;;;;4993753;28;20435;-89
2022/03/23 01:22:56;;;;;;;20.30;16.00;;;4.50;94.60;;;;;;4999861;28;20189;-90
2022/03/23 01:25:23;;;;;;;17.60;14.10;;;4.50;94.40;;;;;;5010439;28;20578;-90
2022/03/23 01:27:49;;;;;;;17.93;14.87;;;4.40;94.80;;;;;;5012031;28;20192;-91
2022/03/23 01:30:16;;;;;;;19.60;14.50;;;4.10;94.60;;;;;;5003453;28;20538;-88
2022/03/23 01:32:43;;;;;;;21.27;15.90;;;3.90;96.50;;;;;;5010328;28;20593;-89
2022/03/23 01:35:11;;;;;;;21.07;13.40;;;4.20;96.80;;;;;;5010059;28;20436;-89
2022/03/23 01:37:37;;;;;;;19.27;14.17;;;4.30;96.50;;;;;;5008125;28;20826;-89
2022/03/23 01:40:06;;;;;;;18.77;14.67;;;4.50;96.30;;;;;;5008305;28;21656;-89
2022/03/23 01:42:32;;;;;;;20.03;15.03;;;4.70;96.10;;;;;;5008128;28;20195;-89
2022/03/23 01:44:58;;;;;;;23.53;14.80;;;4.90;95.40;;;;;;5011808;28;20453;-90
2022/03/23 01:47:26;;;;;;;19.03;14.47;;;5.00;94.90;;;;;;5005828;28;20551;-89
2022/03/23 01:49:54;;;;;;;19.87;14.97;;;5.00;94.50;;;;;;5006938;28;20581;-89
2022/03/23 01:52:22;;;;;;;19.87;15.57;;;5.10;94.30;;;;;;5009005;28;20284;-90
2022/03/23 01:54:48;;;;;;;19.57;14.80;;;5.00;94.40;;;;;;5008029;28;20791;-89
2022/03/23 01:57:16;;;;;;;18.70;13.70;;;5.00;94.90;;;;;;5005273;28;20800;-89
2022/03/23 01:59:42;;;;;;;18.00;14.43;;;4.80;95.10;;;;;;5009108;28;20444;-89
2022/03/23 02:02:08;;;;;;;19.87;14.57;;;4.70;95.30;;;;;;4999465;28;20468;-88
2022/03/23 02:04:34;;;;;;;17.57;13.30;;;4.70;95.40;;;;;;5010941;28;20444;-89
2022/03/23 02:07:32;;;;;;;19.20;14.90;;;4.60;95.90;;;;;;5009456;28;20443;-91
2022/03/23 02:10:17;;;;;;;18.87;14.33;;;4.60;96.00;;;;;;5012938;28;20221;-90
2022/03/23 02:12:43;;;;;;;17.63;14.37;;;4.60;96.00;;;;;;5009297;28;20963;-91
2022/03/23 02:15:12;;;;;;;19.47;13.67;;;4.60;96.10;;;;;;5011353;28;20427;-92
2022/03/23 02:17:38;;;;;;;17.50;14.00;;;4.60;96.20;;;;;;5002275;28;20447;-91
2022/03/23 02:20:03;;;;;;;19.70;14.47;;;4.50;96.30;;;;;;5011241;28;20438;-92
2022/03/23 02:22:29;;;;;;;19.77;14.93;;;4.30;96.80;;;;;;5008189;28;20200;-93
2022/03/23 02:24:56;;;;;;;19.67;14.10;;;4.20;97.30;;;;;;5006412;28;20528;-92
2022/03/23 02:27:32;;;;;;;16.93;13.60;;;4.20;97.60;;;;;;5015311;28;20567;-92
2022/03/23 02:29:58;;;;;;;15.97;13.33;;;4.10;97.60;;;;;;5008986;28;20487;-90
2022/03/23 02:32:24;;;;;;;20.60;14.33;;;4.20;97.60;;;;;;5003094;28;20970;-90
2022/03/23 02:34:50;;;;;;;18.13;14.47;;;4.10;97.80;;;;;;5008881;28;20905;-91
2022/03/23 02:37:16;;;;;;;18.57;14.17;;;3.90;98.00;;;;;;5006792;28;20472;-91
2022/03/23 02:39:42;;;;;;;19.10;14.07;;;3.80;98.90;;;;;;5012041;28;20247;-91
2022/03/23 02:42:08;;;;;;;22.53;15.20;;;3.50;99.80;;;;;;5007265;28;20576;-91
2022/03/23 02:44:33;;;;;;;19.40;14.33;;;3.50;99.90;;;;;;5011788;28;20271;-91
2022/03/23 02:47:03;;;;;;;19.57;13.47;;;3.40;99.90;;;;;;5027898;28;20442;-91
2022/03/23 02:49:28;;;;;;;19.50;14.10;;;3.30;99.90;;;;;;5013191;28;20214;-91
2022/03/23 02:51:56;;;;;;;18.73;14.00;;;3.20;99.90;;;;;;5027300;28;21419;-92
2022/03/23 03:03:16;;;;;;;20.43;14.87;;;3.00;99.90;;;;;;4989856;28;20545;-90
2022/03/23 03:05:41;;;;;;;20.80;14.50;;;2.80;99.90;;;;;;5002229;28;20444;-90
2022/03/23 03:10:54;;;;;;;18.33;13.67;;;3.00;99.90;;;;;;5014699;28;20251;-91
2022/03/23 03:13:20;;;;;;;20.63;14.67;;;3.00;99.90;;;;;;5017953;28;20455;-91
2022/03/23 03:15:45;;;;;;;18.60;15.03;;;2.90;99.90;;;;;;5010867;28;20196;-92
2022/03/23 03:18:11;;;;;;;20.10;16.20;;;3.10;99.90;;;;;;5009749;28;20188;-92
2022/03/23 03:20:36;;;;;;;21.60;15.90;;;3.10;99.90;;;;;;5005920;28;20314;-91
2022/03/23 03:23:03;;;;;;;20.03;14.87;;;3.10;99.90;;;;;;5008863;28;20219;-91
2022/03/23 03:25:28;;;;;;;21.27;15.50;;;3.10;99.90;;;;;;5029298;28;20212;-92
2022/03/23 03:27:54;;;;;;;21.60;16.13;;;3.20;99.90;;;;;;5010958;28;20431;-89
2022/03/23 03:30:20;;;;;;;19.17;14.60;;;3.20;99.90;;;;;;5006164;28;20200;-90
2022/03/23 03:32:46;;;;;;;22.43;14.80;;;3.20;99.90;;;;;;5002927;28;20186;-89
2022/03/23 03:35:13;;;;;;;21.93;15.20;;;3.30;99.90;;;;;;5024128;28;20813;-90
2022/03/23 03:37:39;;;;;;;22.17;15.77;;;3.20;99.90;;;;;;5004657;28;20272;-90
2022/03/23 03:40:06;;;;;;;21.67;16.20;;;3.30;99.90;;;;;;5011300;28;20467;-90
2022/03/23 03:42:32;;;;;;;22.67;15.80;;;3.30;99.90;;;;;;5009833;28;20447;-91
2022/03/23 03:44:57;;;;;;;20.60;14.80;;;3.20;99.90;;;;;;5012403;28;20447;-91
2022/03/23 03:47:24;;;;;;;20.43;15.23;;;3.20;99.90;;;;;;5010145;28;20178;-91
2022/03/23 03:49:50;;;;;;;23.30;15.77;;;3.20;99.90;;;;;;5013214;28;20196;-90
2022/03/23 03:52:18;;;;;;;21.13;15.80;;;3.20;99.90;;;;;;5011648;28;20802;-91
2022/03/23 03:54:44;;;;;;;19.90;14.80;;;3.20;99.90;;;;;;5010470;28;20943;-90
2022/03/23 03:57:10;;;;;;;23.07;15.20;;;3.20;99.90;;;;;;5010763;28;20424;-91
2022/03/23 03:59:36;;;;;;;20.90;15.57;;;3.10;99.90;;;;;;5013721;28;20520;-91
2022/03/23 04:02:19;;;;;;;21.87;15.50;;;3.20;99.90;;;;;;5010446;28;20795;-91
2022/03/23 04:04:44;;;;;;;22.90;16.00;;;3.20;99.90;;;;;;5017690;28;20423;-92
2022/03/23 04:07:10;;;;;;;20.00;15.73;;;3.20;99.90;;;;;;5011881;28;20960;-93
2022/03/23 04:09:35;;;;;;;21.57;14.97;;;3.20;99.90;;;;;;5010088;28;20185;-93
2022/03/23 04:12:04;;;;;;;20.73;14.93;;;3.20;99.90;;;;;;5017889;28;20203;-91
2022/03/23 04:14:30;;;;;;;19.40;15.60;;;3.10;99.90;;;;;;5031340;28;20196;-91
2022/03/23 04:16:55;;;;;;;22.87;15.60;;;3.10;99.90;;;;;;5014192;28;20463;-92
2022/03/23 04:19:21;;;;;;;21.23;15.20;;;3.20;99.90;;;;;;5013185;28;20181;-91
2022/03/23 04:21:47;;;;;;;24.63;15.50;;;3.30;99.90;;;;;;5016177;28;21199;-92
2022/03/23 04:24:12;;;;;;;22.10;15.00;;;3.30;99.90;;;;;;5018958;28;20216;-92
2022/03/23 04:26:38;;;;;;;22.97;14.87;;;3.20;99.90;;;;;;5011136;28;20196;-92
2022/03/23 04:29:03;;;;;;;18.63;15.00;;;3.10;99.90;;;;;;5016006;28;21253;-91
2022/03/23 04:31:29;;;;;;;19.60;14.03;;;3.10;99.90;;;;;;5010763;28;20279;-92
2022/03/23 04:33:55;;;;;;;21.30;16.10;;;3.10;99.90;;;;;;5014368;28;20188;-93
2022/03/23 04:36:21;;;;;;;21.37;15.60;;;3.10;99.90;;;;;;5009841;28;20193;-91
2022/03/23 04:38:48;;;;;;;21.90;16.00;;;3.10;99.90;;;;;;4999458;28;20995;-94
2022/03/23 04:41:13;;;;;;;19.77;14.50;;;3.00;99.90;;;;;;5018250;28;20582;-89
2022/03/23 04:43:45;;;;;;;24.97;15.13;;;3.00;99.90;;;;;;5013637;28;20489;-91
2022/03/23 04:46:12;;;;;;;24.60;16.43;;;3.00;99.90;;;;;;5006303;28;20296;-92
2022/03/23 04:48:38;;;;;;;21.73;16.23;;;3.00;99.90;;;;;;5005635;28;20532;-91
2022/03/23 04:51:04;;;;;;;22.67;15.77;;;3.10;99.90;;;;;;5003974;28;21320;-89
2022/03/23 04:53:29;;;;;;;21.10;15.33;;;3.00;99.90;;;;;;5004814;28;20189;-90
2022/03/23 04:55:55;;;;;;;25.07;15.87;;;3.00;99.90;;;;;;5005264;28;20813;-90
2022/03/23 04:58:20;;;;;;;25.50;15.70;;;2.90;99.90;;;;;;5015972;28;20208;-90
2022/03/23 05:00:46;;;;;;;20.57;14.80;;;2.90;99.90;;;;;;4994486;28;20295;-89
2022/03/23 05:03:13;;;;;;;23.03;16.30;;;2.80;99.90;;;;;;5029373;28;20695;-90
2022/03/23 05:05:39;;;;;;;24.10;16.40;;;2.80;99.90;;;;;;5001840;28;20200;-89
2022/03/23 05:08:05;;;;;;;21.30;15.37;;;2.80;99.90;;;;;;5007309;28;20440;-88
2022/03/23 05:10:31;;;;;;;22.23;16.73;;;2.70;99.90;;;;;;5003829;28;20474;-91
2022/03/23 05:13:01;;;;;;;25.67;16.60;;;2.70;99.90;;;;;;5010677;28;20439;-91
2022/03/23 05:15:34;;;;;;;24.23;16.03;;;2.70;99.90;;;;;;5009463;28;20487;-90
2022/03/23 05:17:59;;;;;;;20.13;15.10;;;2.70;99.90;;;;;;5027471;28;20516;-90
2022/03/23 05:20:25;;;;;;;24.90;16.77;;;2.60;99.90;;;;;;5007121;28;20559;-90
2022/03/23 05:22:50;;;;;;;20.70;16.00;;;2.60;99.90;;;;;;5012944;28;20185;-89
2022/03/23 05:25:16;;;;;;;22.67;16.50;;;2.40;99.90;;;;;;5014293;28;20295;-89
2022/03/23 05:27:45;;;;;;;21.10;14.30;;;2.50;99.90;;;;;;5011869;28;20181;-90
2022/03/23 05:30:11;;;;;;;22.83;14.87;;;2.50;99.90;;;;;;5026614;28;20671;-90
2022/03/23 05:32:39;;;;;;;21.50;15.30;;;2.50;99.90;;;;;;5016765;28;20411;-92
2022/03/23 05:35:05;;;;;;;22.57;15.00;;;2.50;99.90;;;;;;5014333;28;20461;-91
2022/03/23 05:37:31;;;;;;;19.50;14.60;;;2.40;99.90;;;;;;5011213;28;20493;-93
2022/03/23 05:39:57;;;;;;;24.33;15.70;;;2.40;99.90;;;;;;5006917;28;20874;-90
2022/03/23 05:42:22;;;;;;;18.93;14.40;;;2.40;99.90;;;;;;5008883;28;20184;-83
2022/03/23 05:44:48;;;;;;;24.20;16.63;;;2.40;99.90;;;;;;5021229;28;20450;-83
2022/03/23 05:47:14;;;;;;;22.07;15.53;;;2.30;99.90;;;;;;5000658;28;20684;-92
2022/03/23 05:49:44;;;;;;;23.90;15.20;;;2.30;99.90;;;;;;5001541;28;20185;-92
2022/03/23 05:52:19;;;;;;;24.47;15.23;;;2.30;99.90;;;;;;4998649;28;20204;-95
2022/03/23 05:54:45;;;;;;;19.07;14.30;;;2.30;99.90;;;;;;5002607;28;20506;-94
2022/03/23 05:57:47;;;;;;;19.27;15.30;;;2.40;99.90;;;;;;5001952;28;20455;-94
2022/03/23 06:00:18;;;;;;;20.73;14.77;;;2.40;99.90;;;;;;4994703;28;20535;-92
2022/03/23 06:02:45;;;;;;;21.40;14.43;;;2.50;99.90;;;;;;5016895;28;20582;-89
2022/03/23 06:05:10;;;;;;;20.23;14.87;;;2.60;99.90;;;;;;4998163;28;20443;-90
2022/03/23 06:07:36;;;;;;;21.93;15.33;;;2.70;99.90;;;;;;5021700;28;20185;-90
2022/03/23 06:10:03;;;;;;;20.43;14.77;;;2.70;99.90;;;;;;5007336;28;20262;-89
2022/03/23 06:12:30;;;;;;;20.83;16.13;;;2.80;99.90;;;;;;5007061;28;20192;-90
2022/03/23 06:14:55;;;;;;;21.60;14.67;;;2.90;99.90;;;;;;4992195;28;20531;-91
2022/03/23 06:17:21;;;;;;;25.10;16.90;;;2.90;99.90;;;;;;5001613;28;20509;-89
2022/03/23 06:19:46;;;;;;;20.47;15.70;;;2.90;99.90;;;;;;4999720;28;20291;-89
2022/03/23 06:22:12;;;;;;;22.80;16.10;;;3.00;99.90;;;;;;4998475;28;20188;-87
2022/03/23 06:24:37;;;;;;;22.10;16.20;;;3.00;99.90;;;;;;4995955;28;21753;-88
2022/03/23 06:27:06;;;;;;;22.70;15.67;;;3.20;99.90;;;;;;5006928;28;20274;-91
2022/03/23 06:29:32;;;;;;;24.13;16.00;;;3.30;99.90;;;;;;5004091;28;20197;-91
2022/03/23 06:31:57;;;;;;;20.87;15.77;;;3.40;99.90;;;;;;5001110;28;20475;-89
2022/03/23 06:34:25;;;;;;;21.33;15.80;;;3.50;99.90;;;;;;5018394;28;20177;-88
2022/03/23 06:36:51;;;;;;;21.57;15.57;;;3.50;99.90;;;;;;5019267;28;20224;-89
2022/03/23 06:39:16;;;;;;;26.10;15.97;;;3.60;99.90;;;;;;5002383;28;20466;-88
2022/03/23 06:41:42;;;;;;;19.60;15.37;;;3.60;99.90;;;;;;4999288;28;20209;-90
2022/03/23 06:44:07;;;;;;;21.90;15.97;;;3.50;99.90;;;;;;5009233;28;20178;-90
2022/03/23 06:46:39;;;;;;;21.10;15.47;;;3.50;99.90;;;;;;5012410;28;20548;-93
2022/03/23 06:49:08;;;;;;;19.90;15.40;;;3.50;99.90;;;;;;5002372;28;20283;-92
2022/03/23 06:51:33;;;;;;;25.90;16.67;;;3.70;99.90;;;;;;4991185;28;20450;-89
2022/03/23 06:53:59;;;;;;;19.37;15.60;;;3.70;99.90;;;;;;4998853;28;21581;-91
2022/03/23 06:56:35;;;;;;;20.20;16.53;;;3.90;99.90;;;;;;5000589;28;20185;-90
2022/03/23 06:59:00;;;;;;;21.37;15.70;;;3.90;99.90;;;;;;4997182;28;20191;-88
2022/03/23 07:01:34;;;;;;;47.60;38.03;;;3.90;99.90;;;;;;5042223;28;20519;-95
2022/03/23 07:04:00;;;;;;;25.40;20.20;;;4.60;99.90;;;;;;5017798;28;20208;-93
2022/03/23 07:06:25;;;;;;;22.73;16.27;;;4.70;99.90;;;;;;5015875;28;20479;-91
2022/03/23 07:11:35;;;;;;;21.07;16.30;;;4.80;99.90;;;;;;5000843;28;20289;-87
2022/03/23 07:14:01;;;;;;;20.77;15.43;;;4.70;99.90;;;;;;4996582;28;20795;-90
2022/03/23 07:16:30;;;;;;;22.33;17.50;;;4.80;99.90;;;;;;4997463;28;20719;-89
2022/03/23 07:18:56;;;;;;;20.13;16.23;;;4.80;99.90;;;;;;5021119;28;20192;-89
2022/03/23 07:21:22;;;;;;;20.40;16.70;;;4.90;99.90;;;;;;5008482;28;20495;-91
2022/03/23 07:23:47;;;;;;;18.13;14.90;;;5.20;99.90;;;;;;5017446;28;20181;-91
2022/03/23 07:26:16;;;;;;;19.70;17.40;;;5.20;99.90;;;;;;5017456;28;20199;-91
2022/03/23 07:28:41;;;;;;;23.50;17.30;;;5.40;99.90;;;;;;5016096;28;20185;-90
2022/03/23 07:31:08;;;;;;;25.53;16.20;;;5.50;99.90;;;;;;5017613;28;20444;-90
2022/03/23 07:33:34;;;;;;;22.80;17.13;;;5.70;99.40;;;;;;5015940;28;20275;-90
2022/03/23 07:36:01;;;;;;;25.00;17.13;;;5.80;98.90;;;;;;5015682;28;20542;-89
2022/03/23 07:38:26;;;;;;;22.00;17.07;;;5.90;98.80;;;;;;5023581;28;20755;-90
2022/03/23 07:41:01;;;;;;;19.73;15.77;;;6.00;98.80;;;;;;5019725;28;20988;-89
2022/03/23 07:43:29;;;;;;;20.77;16.80;;;5.90;98.80;;;;;;5022215;28;20478;-90
2022/03/23 07:45:55;;;;;;;23.53;17.20;;;;;;;;;;5020752;28;20285;-89
2022/03/23 07:48:23;;;;;;;19.20;15.40;;;6.30;97.80;;;;;;5034169;28;20463;-92
2022/03/23 07:50:55;;;;;;;19.27;16.20;;;6.50;97.70;;;;;;5022390;28;20443;-91
2022/03/23 07:53:26;;;;;;;21.73;16.50;;;6.60;97.70;;;;;;5034722;28;20536;-91
2022/03/23 07:55:54;;;;;;;21.40;16.70;;;6.90;96.90;;;;;;5022508;28;20449;-91
2022/03/23 07:58:22;;;;;;;21.97;16.00;;;7.20;96.70;;;;;;5012448;28;20441;-90
2022/03/23 08:00:56;;;;;;;18.47;15.97;;;7.20;96.30;;;;;;5016835;28;20478;-90
2022/03/23 08:03:21;;;;;;;20.47;16.70;;;7.40;96.00;;;;;;5018429;28;20437;-90
2022/03/23 08:05:57;;;;;;;20.03;16.33;;;7.50;95.90;;;;;;5045683;28;20442;-91
2022/03/23 08:08:23;;;;;;;25.27;17.07;;;7.70;95.50;;;;;;5038829;28;20802;-89
2022/03/23 08:10:48;;;;;;;24.30;18.10;;;7.90;95.00;;;;;;5021060;28;20462;-90
2022/03/23 08:13:16;;;;;;;19.07;16.73;;;8.00;93.70;;;;;;5029120;28;20470;-90
2022/03/23 08:15:42;;;;;;;21.60;16.00;;;8.00;93.10;;;;;;5017579;28;20192;-91
2022/03/23 08:18:08;;;;;;;21.00;15.23;;;8.20;93.80;;;;;;5016493;28;20446;-91
2022/03/23 08:20:35;;;;;;;20.60;16.27;;;8.30;93.10;;;;;;5017214;28;20592;-90
2022/03/23 08:23:06;;;;;;;21.80;16.47;;;8.50;93.00;;;;;;5014894;28;20477;-91
2022/03/23 08:25:38;;;;;;;18.57;16.00;;;8.70;92.10;;;;;;5013472;28;20458;-90
2022/03/23 08:28:05;;;;;;;20.03;16.00;;;9.00;91.10;;;;;;5018827;28;20845;-92
2022/03/23 08:30:34;;;;;;;21.63;16.37;;;9.10;91.30;;;;;;5011842;28;21010;-90
2022/03/23 08:33:01;;;;;;;21.53;16.83;;;9.10;90.70;;;;;;5019094;28;20438;-90
2022/03/23 08:35:29;;;;;;;26.73;18.10;;;;;;;;;;5017350;28;20887;-90
2022/03/23 08:37:55;;;;;;;21.23;17.07;;;;;;;;;;5038348;28;20444;-91
2022/03/23 08:40:21;;;;;;;23.00;17.47;;;;;;;;;;5017270;28;20499;-91
2022/03/23 08:42:47;;;;;;;22.17;17.73;;;;;;;;;;5035830;28;20474;-90
2022/03/23 08:45:13;;;;;;;21.90;17.73;;;;;;;;;;5013776;28;20552;-91
2022/03/23 08:47:39;;;;;;;21.30;17.57;;;;;;;;;;5019313;28;20449;-91
2022/03/23 08:50:07;;;;;;;20.23;17.57;;;10.30;88.30;;;;;;5038255;28;20419;-91
2022/03/23 08:52:34;;;;;;;22.63;17.37;;;10.30;89.30;;;;;;5014283;28;20442;-92
2022/03/23 08:55:03;;;;;;;23.87;17.97;;;10.40;89.70;;;;;;5017230;28;20437;-92
2022/03/23 08:57:31;;;;;;;20.60;18.03;;;10.60;88.00;;;;;;5016440;28;20459;-92
2022/03/23 08:59:57;;;;;;;22.67;19.33;;;10.70;87.20;;;;;;5019232;28;20507;-93
2022/03/23 09:02:25;;;;;;;22.70;17.87;;;10.80;87.50;;;;;;5011443;28;20447;-92
2022/03/23 09:04:50;;;;;;;24.37;18.90;;;11.10;88.30;;;;;;5024049;28;20646;-92
2022/03/23 09:07:16;;;;;;;27.43;19.20;;;11.40;84.30;;;;;;5018881;28;20457;-90
2022/03/23 09:09:42;;;;;;;23.30;19.10;;;11.30;86.30;;;;;;5029498;28;20646;-92
2022/03/23 09:12:11;;;;;;;21.40;17.87;;;11.50;86.70;;;;;;5010412;28;20193;-91
2022/03/23 09:14:37;;;;;;;24.70;19.00;;;11.90;83.80;;;;;;5013841;28;20516;-91
2022/03/23 09:17:03;;;;;;;22.80;19.43;;;11.80;83.20;;;;;;5010244;28;20454;-91
2022/03/23 09:19:29;;;;;;;22.83;18.67;;;11.70;81.70;;;;;;5013011;28;20212;-92
2022/03/23 09:21:55;;;;;;;23.10;18.80;;;12.00;82.80;;;;;;5019405;28;20463;-92
2022/03/23 09:24:21;;;;;;;22.40;18.63;;;12.00;80.80;;;;;;5024278;28;20192;-91
2022/03/23 09:26:47;;;;;;;24.10;18.20;;;12.20;83.10;;;;;;5020831;28;20191;-93
2022/03/23 09:29:17;;;;;;;19.70;17.50;;;12.30;79.60;;;;;;5025773;28;20226;-93
2022/03/23 09:31:43;;;;;;;21.97;18.20;;;12.60;78.40;;;;;;5023697;28;20428;-93
2022/03/23 09:34:08;;;;;;;22.40;18.97;;;12.80;77.00;;;;;;5014989;28;20431;-93
2022/03/23 09:39:19;;;;;;;24.97;19.33;;;13.20;75.60;;;;;;5020261;28;20457;-92
2022/03/23 09:41:45;;;;;;;20.73;18.53;;;13.30;75.50;;;;;;5034570;28;20477;-93
2022/03/23 09:44:11;;;;;;;21.10;18.90;;;13.10;73.20;;;;;;5012298;28;20523;-92
2022/03/23 09:46:52;;;;;;;23.43;18.10;;;13.00;73.50;;;;;;5031435;28;20531;-92
2022/03/23 09:49:18;;;;;;;22.27;19.30;;;13.20;74.30;;;;;;5035886;28;20776;-92
2022/03/23 09:51:46;;;;;;;22.10;18.23;;;13.50;76.70;;;;;;5014740;28;20550;-92
2022/03/23 09:54:12;;;;;;;20.57;17.87;;;13.90;68.10;;;;;;5019449;28;20248;-92
2022/03/23 09:56:37;;;;;;;21.60;19.30;;;14.00;66.80;;;;;;5016953;28;20456;-93
2022/03/23 09:59:08;;;;;;;20.97;18.53;;;14.60;70.80;;;;;;5015642;28;20211;-92
2022/03/23 10:01:46;;;;;;;20.03;17.53;;;14.80;71.00;;;;;;5016515;28;20565;-93
2022/03/23 10:04:18;;;;;;;20.47;18.30;;;15.00;68.10;;;;;;5018324;28;20509;-94
2022/03/23 10:07:08;;;;;;;23.80;18.07;;;14.80;63.40;;;;;;5037100;28;20453;-93
2022/03/23 10:10:22;;;;;;;18.90;17.07;;;14.80;66.80;;;;;;5038866;28;20474;-93
2022/03/23 10:13:25;;;;;;;20.00;18.00;;;15.40;64.70;;;;;;5009970;28;20831;-93
2022/03/23 10:16:28;;;;;;;19.40;17.30;;;15.50;59.50;;;;;;5032495;28;20453;-93
2022/03/23 10:18:58;;;;;;;19.50;17.40;;;15.70;60.70;;;;;;5026686;28;20461;-94
2022/03/23 10:21:35;;;;;;;19.43;17.53;;;16.00;62.60;;;;;;5016583;28;20482;-94
2022/03/23 10:24:01;;;;;;;17.63;15.83;;;16.60;63.00;;;;;;5016584;28;20430;-94
2022/03/23 10:26:28;;;;;;;18.20;15.70;;;17.20;57.80;;;;;;5033573;28;20444;-94
2022/03/23 10:28:55;;;;;;;15.70;14.20;;;17.60;56.10;;;;;;5029893;28;20449;-92
2022/03/23 10:31:25;;;;;;;17.07;15.23;;;17.90;53.40;;;;;;5011482;28;20452;-93
2022/03/23 10:34:08;;;;;;;15.63;14.00;;;18.00;50.50;;;;;;5015226;28;20933;-94
2022/03/23 10:36:55;;;;;;;14.47;13.13;;;18.10;49.60;;;;;;5018520;28;20439;-92
2022/03/23 10:39:27;;;;;;;13.67;12.47;;;18.40;48.00;;;;;;5013363;28;20498;-94
2022/03/23 10:42:15;;;;;;;13.53;12.23;;;18.40;46.30;;;;;;5016603;28;20841;-93
2022/03/23 10:44:42;;;;;;;14.13;12.73;;;18.60;47.10;;;;;;4999461;28;20439;-93
2022/03/23 10:47:19;;;;;;;13.30;12.07;;;18.50;48.20;;;;;;4997412;28;20444;-94
2022/03/23 10:49:45;;;;;;;14.23;12.93;;;18.80;44.40;;;;;;5006097;28;21026;-92
2022/03/23 10:52:15;;;;;;;14.27;13.00;;;18.90;42.70;;;;;;5009767;28;20443;-93
2022/03/23 10:55:02;;;;;;;13.50;12.20;;;18.60;44.50;;;;;;5029555;28;20182;-94
2022/03/23 10:57:52;;;;;;;13.00;11.73;;;18.90;45.20;;;;;;5027557;28;20445;-93
2022/03/23 11:00:30;;;;;;;15.23;13.83;;;18.80;46.00;;;;;;5005721;28;20482;-96
2022/03/23 11:02:57;;;;;;;13.23;12.03;;;18.70;45.20;;;;;;5031157;28;20412;-96
2022/03/23 11:05:43;;;;;;;14.10;12.80;;;18.70;42.00;;;;;;5033037;28;20460;-96
2022/03/23 11:08:23;;;;;;;13.40;12.23;;;18.70;41.70;;;;;;5036256;28;20996;-96
2022/03/23 11:16:49;;;;;;;13.30;12.10;;;18.90;40.50;;;;;;5006438;28;20462;-94
2022/03/23 11:19:24;;;;;;;13.40;12.13;;;18.70;41.70;;;;;;5011085;28;20444;-93
2022/03/23 11:22:01;;;;;;;12.97;11.77;;;18.70;43.10;;;;;;5022848;28;20504;-94
2022/03/23 11:24:29;;;;;;;12.13;11.03;;;18.90;39.30;;;;;;5041721;28;20438;-93
2022/03/23 11:26:56;;;;;;;13.13;11.83;;;19.30;41.50;;;;;;5022900;28;20439;-95
2022/03/23 11:29:22;;;;;;;13.23;12.10;;;19.80;37.60;;;;;;5021755;28;21604;-96
2022/03/23 11:31:49;;;;;;;12.90;11.80;;;20.00;37.60;;;;;;5018029;28;20463;-93
2022/03/23 11:34:18;;;;;;;15.60;13.13;;;20.40;40.20;;;;;;5036955;28;20426;-91
2022/03/23 11:36:45;;;;;;;13.70;12.50;;;20.00;38.40;;;;;;5026677;28;20495;-93
2022/03/23 11:39:11;;;;;;;14.10;12.80;;;20.00;38.50;;;;;;5019212;28;20474;-93
2022/03/23 11:41:38;;;;;;;14.00;12.53;;;19.50;36.50;;;;;;5021072;28;20962;-93
2022/03/23 11:44:04;;;;;;;13.80;12.60;;;19.40;40.10;;;;;;5021180;28;20471;-93
2022/03/23 11:46:30;;;;;;;12.97;11.67;;;19.50;39.30;;;;;;5022961;28;20440;-94
2022/03/23 11:49:17;;;;;;;12.50;11.20;;;19.80;43.30;;;;;;5019923;28;20462;-93
2022/03/23 11:51:55;;;;;;;17.13;12.33;;;19.80;38.70;;;;;;5015872;28;20446;-93
2022/03/23 11:57:56;;;;;;;17.23;13.00;;;19.70;45.70;;;;;;4995156;28;20982;-91
2022/03/23 12:00:27;;;;;;;14.73;13.43;;;20.00;40.90;;;;;;5004157;28;20521;-93
2022/03/23 12:02:56;;;;;;;15.30;13.57;;;20.20;40.10;;;;;;5009000;28;20443;-95
2022/03/23 12:05:23;;;;;;;11.07;10.10;;;20.40;39.90;;;;;;5012457;28;20451;-92
2022/03/23 12:07:49;;;;;;;13.10;11.80;;;20.50;36.90;;;;;;5017026;28;20439;-94
2022/03/23 12:10:20;;;;;;;13.87;12.50;;;20.70;39.60;;;;;;5012892;28;20448;-92
2022/03/23 12:12:46;;;;;;;15.40;12.70;;;20.60;37.40;;;;;;5021725;28;20193;-92
2022/03/23 12:15:23;;;;;;;14.43;13.13;;;20.70;38.70;;;;;;5001724;28;20451;-92
2022/03/23 12:17:55;;;;;;;15.87;14.23;;;20.80;39.00;;;;;;5019659;28;20454;-92
2022/03/23 12:20:32;;;;;;;15.43;13.90;;;21.00;39.90;;;;;;5013531;28;20482;-94
2022/03/23 12:23:45;;;;;;;14.20;12.80;;;20.70;35.20;;;;;;5008508;28;20774;-92
2022/03/23 12:26:43;;;;;;;14.90;13.40;;;20.50;36.40;;;;;;5022122;28;20526;-93
2022/03/23 12:29:37;;;;;;;13.57;12.37;;;20.10;36.00;;;;;;5006804;28;20459;-93
2022/03/23 12:32:05;;;;;;;13.40;11.33;;;20.00;35.50;;;;;;5021172;28;20444;-93
2022/03/23 12:34:50;;;;;;;14.90;13.40;;;20.00;33.90;;;;;;5013498;28;20896;-93
2022/03/23 12:37:18;;;;;;;15.93;13.03;;;20.50;35.20;;;;;;5008310;28;20543;-92
2022/03/23 12:39:46;;;;;;;14.83;13.47;;;20.30;34.60;;;;;;5005917;28;20536;-92
2022/03/23 12:42:12;;;;;;;13.63;12.40;;;20.20;35.40;;;;;;5000661;28;20551;-91
2022/03/23 12:44:46;;;;;;;14.20;12.80;;;20.20;36.30;;;;;;5002376;28;20528;-92
2022/03/23 12:47:17;;;;;;;12.87;11.70;;;20.60;39.60;;;;;;5001018;28;20192;-92
2022/03/23 12:58:08;;;;;;;16.63;13.63;;;20.70;34.20;;;;;;5010223;28;20442;-91
2022/03/23 13:00:40;;;;;;;14.93;13.53;;;20.80;35.30;;;;;;5003144;28;20579;-91
2022/03/23 13:03:05;;;;;;;11.33;10.33;;;21.50;37.90;;;;;;5017465;28;20918;-92
2022/03/23 13:05:32;;;;;;;11.33;10.23;;;21.40;32.70;;;;;;5016736;28;20509;-93
2022/03/23 13:07:58;;;;;;;10.93;9.93;;;21.90;34.20;;;;;;5004972;28;20216;-93
2022/03/23 13:10:27;;;;;;;14.10;12.80;;;22.10;33.70;;;;;;5003243;28;20941;-92
2022/03/23 13:13:08;;;;;;;14.77;13.47;;;22.40;35.80;;;;;;5007796;28;20212;-91
2022/03/23 13:15:35;;;;;;;16.33;13.90;;;22.30;35.40;;;;;;4984317;28;20473;-92
2022/03/23 13:18:01;;;;;;;15.07;13.77;;;22.40;35.40;;;;;;5007344;28;20445;-92
2022/03/23 13:20:30;;;;;;;15.47;13.87;;;22.00;33.50;;;;;;5009896;28;20458;-92